Monday, December 10, 2018, 10:06 PM EST
Back to Local

KFMH, Otis Air National Guard Base

Location: Mashpee, MA, United States Lat: 41.65
Local Time: 10:06 PM EST ( 3:06 GMT) Lon: -70.517
Time Zone: US/Eastern Elev: 131 ft

Show me the last for .
Show Decoded

2018-12-10 21:35 METAR KFMH 110235Z 35005KT 10SM CLR M02/M10 A3016 RMK AO2 =
2018-12-10 21:15 METAR KFMH 110215Z 35004KT 10SM CLR M03/M10 A3016 RMK AO2 =
2018-12-10 20:55 METAR KFMH 110155Z 01003KT 10SM CLR M02/M10 A3016 RMK AO2 =
2018-12-10 20:35 METAR KFMH 110135Z 35005KT 10SM CLR M02/M10 A3016 RMK AO2 =
2018-12-10 20:15 METAR KFMH 110115Z 35005KT 10SM CLR M02/M10 A3015 RMK AO2 =
2018-12-10 19:55 METAR KFMH 110055Z 34006KT 10SM CLR M02/M10 A3016 RMK AO2 =
2018-12-10 19:35 METAR KFMH 110035Z 33005KT 10SM FEW033 M02/M09 A3015 RMK AO2 =
2018-12-10 19:15 METAR KFMH 110015Z 33004KT 10SM FEW034 M02/M09 A3014 RMK AO2 =
2018-12-10 18:55 METAR KFMH 102355Z 33004KT 10SM FEW035 M02/M09 A3013 RMK AO2 =
2018-12-10 18:35 METAR KFMH 102335Z 34004KT 10SM CLR M04/M08 A3013 RMK AO2 =
2018-12-10 18:15 METAR KFMH 102315Z 34003KT 10SM CLR M02/M08 A3012 RMK AO2 =
2018-12-10 17:55 METAR KFMH 102255Z 34004KT 10SM FEW035 M02/M07 A3012 RMK AO2 =
2018-12-10 17:35 METAR KFMH 102235Z 35003KT 10SM SCT035 M01/M07 A3012 RMK AO2 =
2018-12-10 17:15 METAR KFMH 102215Z 00000KT 10SM SCT038 M01/M07 A3011 RMK AO2 =
2018-12-10 16:55 METAR KFMH 102155Z 00000KT 10SM CLR M01/M06 A3011 RMK AO2 =
2018-12-10 16:35 METAR KFMH 102135Z 00000KT 10SM CLR M00/M06 A3011 RMK AO2 =
2018-12-10 16:15 METAR KFMH 102115Z 36004KT 10SM CLR 00/M06 A3011 RMK AO2 =
2018-12-10 15:55 METAR KFMH 102055Z 35004G11KT 10SM CLR 01/M06 A3010 RMK AO2 =
2018-12-10 15:35 METAR KFMH 102035Z 35007KT 10SM CLR 01/M06 A3010 RMK AO2 =
2018-12-10 15:15 METAR KFMH 102015Z VRB06KT 10SM CLR 02/M06 A3008 RMK AO2 =
2018-12-10 14:55 METAR KFMH 101955Z 36010KT 10SM FEW031 FEW037 02/M05 A3008 RMK AO2 =
2018-12-10 14:35 METAR KFMH 101935Z 02009KT 10SM FEW031 BKN038 02/M05 A3008 RMK AO2 =
2018-12-10 14:15 METAR KFMH 101915Z 36010KT 10SM OVC037 03/M05 A3008 RMK AO2 =
2018-12-10 13:55 METAR KFMH 101855Z 01009KT 340V040 10SM OVC038 02/M05 A3007 RMK AO2 =
2018-12-10 13:35 METAR KFMH 101835Z 35008G14KT 10SM OVC038 02/M05 A3006 RMK AO2 =
2018-12-10 13:15 METAR KFMH 101815Z 36010G18KT 10SM OVC036 02/M04 A3006 RMK AO2 =
2018-12-10 12:55 METAR KFMH 101755Z 01011KT 10SM BKN035 03/M04 A3005 RMK AO2 =
2018-12-10 12:35 METAR KFMH 101735Z 34013G19KT 10SM BKN035 02/M04 A3005 RMK AO2 =
2018-12-10 12:15 METAR KFMH 101715Z 35009G15KT 10SM BKN035 02/M04 A3005 RMK AO2 =
2018-12-10 11:55 METAR KFMH 101655Z 35010G17KT 10SM BKN035 02/M04 A3005 RMK AO2 =
2018-12-10 11:35 METAR KFMH 101635Z 36010KT 10SM BKN035 03/M04 A3006 RMK AO2 =
2018-12-10 11:15 METAR KFMH 101615Z 01010G15KT 330V040 10SM BKN035 03/M04 A3005 RMK AO2 =
2018-12-10 10:55 METAR KFMH 101555Z VRB06KT 10SM BKN035 02/M05 A3006 RMK AO2 =
2018-12-10 10:35 METAR KFMH 101535Z 33007KT 10SM OVC035 02/M05 A3007 RMK AO2 =
2018-12-10 10:15 METAR KFMH 101515Z AUTO 32008KT 10SM OVC038 01/M05 A3008 RMK AO2 =
2018-12-10 09:55 METAR KFMH 101455Z 33008KT 10SM OVC035 00/M05 A3008 RMK AO2 =
2018-12-10 09:35 METAR KFMH 101435Z 33007G36KT 10SM OVC035 M00/M06 A3008 RMK AO2 =
2018-12-10 09:15 METAR KFMH 101415Z AUTO 32009KT 10SM OVC035 M01/M06 A3007 RMK AO2 =
2018-12-10 08:55 METAR KFMH 101355Z 33007KT 10SM OVC035 M01/M06 A3007 RMK AO2 =
2018-12-10 08:35 METAR KFMH 101335Z 33006KT 10SM BKN033 M02/M07 A3006 RMK AO2 =
2018-12-10 08:15 METAR KFMH 101315Z 32006KT 10SM BKN029 OVC034 M03/M07 A3006 RMK AO2 =
2018-12-10 07:55 METAR KFMH 101255Z 33007KT 10SM BKN028 M03/M08 A3005 RMK AO2 =
2018-12-10 07:35 METAR KFMH 101235Z 32007KT 10SM BKN029 M04/M08 A3005 RMK AO2 =
2018-12-10 07:15 METAR KFMH 101215Z 33006KT 10SM SCT029 M04/M09 A3005 RMK AO2 =
2018-12-10 06:55 METAR KFMH 101155Z 33006KT 10SM SCT028 M04/M09 A3005 RMK AO2 =
2018-12-10 06:35 METAR KFMH 101135Z 32005KT 10SM BKN026 BKN031 M05/M09 A3005 RMK AO2 =
2018-12-10 06:15 METAR KFMH 101115Z 32005KT 10SM SCT029 M05/M09 A3005 RMK AO2 =
2018-12-10 05:55 METAR KFMH 101055Z 32004KT 10SM FEW027 M05/M10 A3005 RMK AO2 =
2018-12-10 05:35 METAR KFMH 101035Z 31003KT 10SM CLR M05/M10 A3005 RMK AO2 =
2018-12-10 05:15 METAR KFMH 101015Z AUTO 33004KT 10SM CLR M05/M10 A3004 RMK AO2 =
2018-12-10 04:55 METAR KFMH 100955Z 33004KT 10SM CLR M05/M10 A3005 RMK AO2 =
2018-12-10 04:35 METAR KFMH 100935Z 32004KT 10SM CLR M05/M10 A3004 RMK AO2 =
2018-12-10 04:15 METAR KFMH 100915Z 32004KT 10SM CLR M04/M10 A3005 RMK AO2 =
2018-12-10 03:55 METAR KFMH 100855Z 33004KT 10SM CLR M04/M09 A3006 RMK AO2 =
2018-12-10 03:35 METAR KFMH 100835Z 31004KT 10SM CLR M04/M09 A3006 RMK AO2 =
2018-12-10 03:15 METAR KFMH 100815Z 32007KT 10SM CLR M04/M09 A3006 RMK AO2 =
2018-12-10 02:55 METAR KFMH 100755Z 32004KT 10SM CLR M03/M09 A3008 RMK AO2 =
2018-12-10 02:35 METAR KFMH 100735Z 32006KT 10SM CLR M03/M08 A3008 RMK AO2 =
2018-12-10 02:15 METAR KFMH 100715Z 32004KT 10SM CLR M03/M08 A3008 RMK AO2 =
2018-12-10 01:55 METAR KFMH 100655Z 31005KT 10SM CLR M03/M08 A3009 RMK AO2 =
2018-12-10 01:35 METAR KFMH 100635Z 31005KT 10SM CLR M03/M07 A3009 RMK AO2 =
2018-12-10 01:15 METAR KFMH 100615Z 30005KT 10SM CLR M02/M07 A3009 RMK AO2 =
2018-12-10 00:55 METAR KFMH 100555Z 29007KT 10SM CLR M02/M06 A3010 RMK AO2 =
2018-12-10 00:35 METAR KFMH 100535Z 29007KT 10SM CLR M01/M06 A3010 RMK AO2 =
2018-12-10 00:15 METAR KFMH 100515Z 29007KT 10SM CLR M01/M05 A3011 RMK AO2 =
2018-12-09 23:55 METAR KFMH 100455Z 28010KT 10SM CLR M00/M05 A3012 RMK AO2 =
2018-12-09 23:35 METAR KFMH 100435Z 28009KT 10SM CLR M00/M05 A3013 RMK AO2 =
2018-12-09 23:15 METAR KFMH 100415Z 26011KT 10SM CLR 00/M05 A3015 RMK AO2 =
2018-12-09 22:55 METAR KFMH 100355Z 26012G18KT 10SM CLR 00/M05 A3016 RMK AO2 =
2018-12-09 22:35 METAR KFMH 100335Z 26011KT 10SM CLR 00/M05 A3017 RMK AO2 =
2018-12-09 22:15 METAR KFMH 100315Z 25011KT 10SM CLR M00/M06 A3017 RMK AO2 =

Support USWX by starting your Amazon purchase here.